LOT81L EPWA-EPGD
Flight info
| Callsign | LOT81L |
|---|---|
| Flight time | 0h 36m |
| Altitude | 26000 |
| Route | OLILA L621 RILAB DCT OSLOG |
| Aircraft | B738/M-SDE2E3FGHIRWXY/LB1 |
Departure
| Time | 2026-04-30 14:22 |
|---|---|
| Airport | Warsaw Chopin Airport (EPWA) |
Arrival
| Time | 2026-04-30 14:58 |
|---|---|
| Airport | Gdańsk Lech Wałęsa Airport (EPGD) |
| Time | Latitude | Longitude | Altitude | Speed | Heading |
|---|---|---|---|---|---|
| 2026-04-30 13:53 | 52.16883 | 20.96971 | 335 ft | 0 kts | 242° |
| 2026-04-30 14:16 | 52.16879 | 20.96961 | 335 ft | 3 kts | 242° |
| 2026-04-30 14:16 | 52.16857 | 20.96899 | 335 ft | 8 kts | 227° |
| 2026-04-30 14:16 | 52.16829 | 20.96890 | 335 ft | 4 kts | 163° |
| 2026-04-30 14:16 | 52.16788 | 20.96926 | 332 ft | 13 kts | 151° |
| 2026-04-30 14:17 | 52.16684 | 20.97023 | 335 ft | 19 kts | 140° |
| 2026-04-30 14:17 | 52.16619 | 20.97209 | 335 ft | 19 kts | 113° |
| 2026-04-30 14:17 | 52.16567 | 20.97398 | 334 ft | 18 kts | 114° |
| 2026-04-30 14:17 | 52.16515 | 20.97581 | 332 ft | 17 kts | 115° |
| 2026-04-30 14:18 | 52.16467 | 20.97754 | 334 ft | 14 kts | 114° |
| 2026-04-30 14:18 | 52.16431 | 20.97817 | 332 ft | 6 kts | 160° |
| 2026-04-30 14:18 | 52.16383 | 20.97786 | 332 ft | 0 kts | 208° |
| 2026-04-30 14:20 | 52.16381 | 20.97785 | 333 ft | 1 kts | 207° |
| 2026-04-30 14:21 | 52.16340 | 20.97752 | 336 ft | 11 kts | 201° |
| 2026-04-30 14:21 | 52.16305 | 20.97690 | 332 ft | 3 kts | 271° |
| 2026-04-30 14:21 | 52.16338 | 20.97559 | 333 ft | 13 kts | 295° |
| 2026-04-30 14:22 | 52.16520 | 20.96914 | 332 ft | 116 kts | 294° |
| 2026-04-30 14:22 | 52.17403 | 20.93730 | 2416 ft | 160 kts | 298° |
| 2026-04-30 14:22 | 52.17885 | 20.92011 | 3552 ft | 173 kts | 297° |
| 2026-04-30 14:23 | 52.19734 | 20.89212 | 5221 ft | 201 kts | 337° |
| 2026-04-30 14:23 | 52.22491 | 20.87091 | 6673 ft | 244 kts | 324° |
| 2026-04-30 14:24 | 52.24912 | 20.82761 | 8614 ft | 265 kts | 316° |
| 2026-04-30 14:24 | 52.26222 | 20.80640 | 9744 ft | 266 kts | 329° |
| 2026-04-30 14:25 | 52.29686 | 20.78851 | 11682 ft | 272 kts | 353° |
| 2026-04-30 14:25 | 52.33630 | 20.77593 | 12992 ft | 308 kts | 345° |
| 2026-04-30 14:26 | 52.37672 | 20.74446 | 14548 ft | 330 kts | 338° |
| 2026-04-30 14:26 | 52.39733 | 20.72717 | 15488 ft | 333 kts | 338° |
| 2026-04-30 14:26 | 52.43898 | 20.69256 | 17334 ft | 340 kts | 339° |
| 2026-04-30 14:27 | 52.46028 | 20.67504 | 18200 ft | 344 kts | 339° |
| 2026-04-30 14:27 | 52.48184 | 20.65736 | 19029 ft | 348 kts | 339° |
| 2026-04-30 14:27 | 52.50362 | 20.63951 | 19825 ft | 351 kts | 340° |
| 2026-04-30 14:28 | 52.54760 | 20.60346 | 21415 ft | 356 kts | 340° |
| 2026-04-30 14:28 | 52.56980 | 20.58524 | 22179 ft | 359 kts | 341° |
| 2026-04-30 14:28 | 52.59144 | 20.56357 | 22904 ft | 371 kts | 332° |
| 2026-04-30 14:28 | 52.61154 | 20.53559 | 23321 ft | 386 kts | 324° |
| 2026-04-30 14:29 | 52.64540 | 20.46468 | 23987 ft | 397 kts | 314° |
| 2026-04-30 14:29 | 52.67187 | 20.40273 | 24364 ft | 398 kts | 315° |
| 2026-04-30 14:30 | 52.72807 | 20.28359 | 24404 ft | 391 kts | 322° |
| 2026-04-30 14:31 | 52.76478 | 20.21719 | 24405 ft | 392 kts | 322° |
| 2026-04-30 14:31 | 52.80123 | 20.15023 | 24400 ft | 392 kts | 321° |
| 2026-04-30 14:31 | 52.81929 | 20.11642 | 24399 ft | 393 kts | 320° |
| 2026-04-30 14:32 | 52.85443 | 20.04701 | 24397 ft | 394 kts | 319° |
| 2026-04-30 14:32 | 52.87186 | 20.01206 | 24401 ft | 393 kts | 319° |
| 2026-04-30 14:32 | 52.88925 | 19.97724 | 24398 ft | 392 kts | 319° |
| 2026-04-30 14:33 | 52.90662 | 19.94251 | 24393 ft | 391 kts | 319° |
| 2026-04-30 14:33 | 52.94126 | 19.87337 | 24395 ft | 389 kts | 319° |
| 2026-04-30 14:33 | 52.95851 | 19.83893 | 24396 ft | 388 kts | 319° |
| 2026-04-30 14:34 | 52.97567 | 19.80461 | 24401 ft | 388 kts | 319° |
| 2026-04-30 14:34 | 52.99293 | 19.77006 | 24400 ft | 388 kts | 319° |
| 2026-04-30 14:34 | 53.01017 | 19.73553 | 24398 ft | 388 kts | 319° |
| 2026-04-30 14:34 | 53.02736 | 19.70104 | 24400 ft | 388 kts | 319° |
| 2026-04-30 14:35 | 53.05612 | 19.64390 | 24398 ft | 385 kts | 322° |
| 2026-04-30 14:35 | 53.08225 | 19.60553 | 24403 ft | 374 kts | 332° |
| 2026-04-30 14:35 | 53.10317 | 19.57997 | 24396 ft | 374 kts | 333° |
| 2026-04-30 14:36 | 53.12423 | 19.55461 | 24396 ft | 374 kts | 333° |
| 2026-04-30 14:36 | 53.14534 | 19.52916 | 24393 ft | 375 kts | 332° |
| 2026-04-30 14:36 | 53.16645 | 19.50357 | 24395 ft | 375 kts | 332° |
| 2026-04-30 14:36 | 53.18752 | 19.47787 | 24389 ft | 376 kts | 332° |
| 2026-04-30 14:37 | 53.20835 | 19.45227 | 24387 ft | 368 kts | 332° |
| 2026-04-30 14:37 | 53.22881 | 19.42702 | 24390 ft | 365 kts | 332° |
| 2026-04-30 14:37 | 53.24924 | 19.40182 | 24390 ft | 366 kts | 332° |
| 2026-04-30 14:37 | 53.26975 | 19.37652 | 24397 ft | 367 kts | 332° |
| 2026-04-30 14:38 | 53.29033 | 19.35109 | 24071 ft | 368 kts | 332° |
| 2026-04-30 14:38 | 53.31069 | 19.32582 | 23556 ft | 362 kts | 332° |
| 2026-04-30 14:38 | 53.33071 | 19.30091 | 23047 ft | 356 kts | 332° |
| 2026-04-30 14:38 | 53.35046 | 19.27632 | 22526 ft | 351 kts | 331° |
| 2026-04-30 14:39 | 53.36994 | 19.25207 | 21990 ft | 347 kts | 331° |
| 2026-04-30 14:39 | 53.38923 | 19.22804 | 21483 ft | 344 kts | 331° |
| 2026-04-30 14:39 | 53.40833 | 19.20424 | 20974 ft | 341 kts | 331° |
| 2026-04-30 14:40 | 53.44607 | 19.15714 | 19963 ft | 336 kts | 330° |
| 2026-04-30 14:40 | 53.46474 | 19.13380 | 19471 ft | 334 kts | 330° |
| 2026-04-30 14:40 | 53.48331 | 19.11056 | 18981 ft | 332 kts | 330° |
| 2026-04-30 14:40 | 53.50179 | 19.08741 | 18464 ft | 331 kts | 330° |
| 2026-04-30 14:41 | 53.52018 | 19.06433 | 17915 ft | 329 kts | 329° |
| 2026-04-30 14:41 | 53.53843 | 19.04139 | 17397 ft | 327 kts | 329° |
| 2026-04-30 14:41 | 53.55658 | 19.01855 | 16913 ft | 324 kts | 329° |
| 2026-04-30 14:41 | 53.57453 | 18.99594 | 16425 ft | 322 kts | 329° |
| 2026-04-30 14:42 | 53.59242 | 18.97339 | 15946 ft | 320 kts | 329° |
| 2026-04-30 14:42 | 53.61017 | 18.95099 | 15467 ft | 318 kts | 328° |
| 2026-04-30 14:42 | 53.62763 | 18.92893 | 15006 ft | 317 kts | 328° |
| 2026-04-30 14:42 | 53.64523 | 18.90668 | 14526 ft | 316 kts | 328° |
| 2026-04-30 14:43 | 53.66276 | 18.88448 | 14039 ft | 314 kts | 328° |
| 2026-04-30 14:43 | 53.68021 | 18.86237 | 13519 ft | 313 kts | 328° |
| 2026-04-30 14:43 | 53.69755 | 18.84037 | 13027 ft | 311 kts | 327° |
| 2026-04-30 14:43 | 53.71470 | 18.81857 | 12734 ft | 303 kts | 327° |
| 2026-04-30 14:44 | 53.73121 | 18.79753 | 12599 ft | 291 kts | 327° |
| 2026-04-30 14:44 | 53.74200 | 18.78378 | 12509 ft | 284 kts | 328° |
| 2026-04-30 14:44 | 53.75909 | 18.76990 | 12381 ft | 266 kts | 351° |
| 2026-04-30 14:44 | 53.77683 | 18.76781 | 12196 ft | 257 kts | 7° |
| 2026-04-30 14:45 | 53.79411 | 18.77494 | 11995 ft | 258 kts | 21° |
| 2026-04-30 14:45 | 53.81073 | 18.78719 | 11811 ft | 262 kts | 24° |
| 2026-04-30 14:45 | 53.82724 | 18.80020 | 11540 ft | 261 kts | 24° |
| 2026-04-30 14:45 | 53.84356 | 18.81319 | 11267 ft | 257 kts | 24° |
| 2026-04-30 14:46 | 53.85975 | 18.82578 | 10989 ft | 254 kts | 19° |
| 2026-04-30 14:46 | 53.87709 | 18.82954 | 10721 ft | 251 kts | 2° |
| 2026-04-30 14:46 | 53.89450 | 18.82992 | 10453 ft | 251 kts | 2° |
| 2026-04-30 14:46 | 53.91198 | 18.83031 | 10094 ft | 251 kts | 2° |
| 2026-04-30 14:47 | 53.92953 | 18.83075 | 9666 ft | 253 kts | 2° |
| 2026-04-30 14:47 | 53.94718 | 18.83126 | 9242 ft | 254 kts | 2° |
| 2026-04-30 14:47 | 53.96486 | 18.83181 | 8886 ft | 253 kts | 1° |
| 2026-04-30 14:47 | 53.98238 | 18.83239 | 8579 ft | 251 kts | 1° |
| 2026-04-30 14:48 | 53.99976 | 18.83298 | 8265 ft | 249 kts | 1° |
| 2026-04-30 14:48 | 54.01700 | 18.83360 | 7952 ft | 247 kts | 1° |
| 2026-04-30 14:48 | 54.03411 | 18.83422 | 7657 ft | 245 kts | 1° |
| 2026-04-30 14:48 | 54.05090 | 18.83484 | 7465 ft | 239 kts | 1° |
| 2026-04-30 14:49 | 54.06735 | 18.83545 | 7263 ft | 234 kts | 1° |
| 2026-04-30 14:49 | 54.08346 | 18.83606 | 7068 ft | 230 kts | 0° |
| 2026-04-30 14:49 | 54.09934 | 18.83665 | 6863 ft | 226 kts | 0° |
| 2026-04-30 14:49 | 54.11496 | 18.83724 | 6657 ft | 223 kts | 0° |
| 2026-04-30 14:50 | 54.14536 | 18.83839 | 6335 ft | 213 kts | 0° |
| 2026-04-30 14:50 | 54.15998 | 18.83894 | 6163 ft | 209 kts | 0° |
| 2026-04-30 14:51 | 54.18814 | 18.84001 | 5794 ft | 195 kts | 359° |
| 2026-04-30 14:51 | 54.20133 | 18.84051 | 5625 ft | 185 kts | 359° |
| 2026-04-30 14:51 | 54.22628 | 18.84147 | 5266 ft | 176 kts | 359° |
| 2026-04-30 14:52 | 54.23853 | 18.84192 | 5080 ft | 176 kts | 359° |
| 2026-04-30 14:52 | 54.26297 | 18.84282 | 4763 ft | 176 kts | 358° |
| 2026-04-30 14:52 | 54.27514 | 18.84183 | 4590 ft | 175 kts | 341° |
| 2026-04-30 14:53 | 54.29135 | 18.81293 | 4298 ft | 174 kts | 299° |
| 2026-04-30 14:53 | 54.29676 | 18.79432 | 4257 ft | 173 kts | 296° |
| 2026-04-30 14:54 | 54.30665 | 18.75547 | 3831 ft | 181 kts | 294° |
| 2026-04-30 14:54 | 54.31630 | 18.71603 | 3351 ft | 178 kts | 294° |
| 2026-04-30 14:55 | 54.32565 | 18.67760 | 2876 ft | 173 kts | 294° |
| 2026-04-30 14:55 | 54.33030 | 18.65875 | 2634 ft | 170 kts | 294° |
| 2026-04-30 14:55 | 54.33914 | 18.62261 | 2210 ft | 157 kts | 293° |
| 2026-04-30 14:56 | 54.34700 | 18.59047 | 1784 ft | 134 kts | 294° |
| 2026-04-30 14:56 | 54.35403 | 18.56174 | 1413 ft | 129 kts | 295° |
| 2026-04-30 14:57 | 54.35748 | 18.54766 | 1210 ft | 130 kts | 295° |
| 2026-04-30 14:57 | 54.36444 | 18.51920 | 864 ft | 130 kts | 295° |
| 2026-04-30 14:58 | 54.37138 | 18.49122 | 535 ft | 126 kts | 295° |
| 2026-04-30 14:58 | 54.37462 | 18.47807 | 460 ft | 107 kts | 294° |
| 2026-04-30 14:58 | 54.37798 | 18.46771 | 450 ft | 16 kts | 323° |
| 2026-04-30 14:59 | 54.37945 | 18.46584 | 453 ft | 10 kts | 335° |
| 2026-04-30 15:00 | 54.38096 | 18.46667 | 452 ft | 2 kts | 21° |
| 2026-04-30 15:00 | 54.38100 | 18.46669 | 452 ft | 0 kts | 21° |